Latest Coastal Weather Observations for Derby

IDW60701

Issued at 12:22 am WST Sunday 6 September 2015 (issued every 10 minutes, with the page automatically refreshed every 10 minutes)

About coastal observations | Map of coastal stations | Coastal observations for WA | Marine services | Other Formats
Station Details ID: 003032 Name: DERBY AERO Lat: -17.37 Lon: 123.66 Height: 6.2 m
Data from the previous 72 hours. | See also: Recent months at Derby
Date/Time
WST
Temp

°C
Wind Pressure Rain
since 9am
mm
Weather Cloud Vis
km
Sea
Height
m
Swell
Dir
 
Speed
knots
Gust
knots
hPa Trend Height
m
Period
s
Dir
06/12:00am 21.8 CALM 0 2 1015.2 - 0.0 - - - - - - -
 
Date/Time
WST
Temp

°C
Wind Pressure Rain
since 9am
mm
Weather Cloud Vis
km
Sea
Height
m
Swell
Dir
 
Speed
knots
Gust
knots
hPa Trend Height
m
Period
s
Dir
05/11:30pm 22.6 CALM 0 0 1015.4 - 0.0 - - - - - - -
05/11:00pm 22.9 SSE 2 3 1015.4 - 0.0 - - - - - - -
05/10:30pm 23.7 SW 3 4 1015.7 - 0.0 - - - - - - -
05/10:00pm 24.6 SW 6 8 1015.8 - 0.0 - - - - - - -
05/09:30pm 25.3 WSW 2 3 1015.9 - 0.0 - - - - - - -
05/09:00pm 26.2 S 5 5 1015.9 - 0.0 - - - - - - -
05/08:30pm 25.9 WNW 6 8 1015.8 - 0.0 - - - - - - -
05/08:00pm 26.6 NW 8 10 1015.5 - 0.0 - - - - - - -
05/07:30pm 27.9 NW 11 15 1015.2 - 0.0 - - - - - - -
05/07:00pm 28.6 NNW 13 16 1014.7 - 0.0 - - - - - - -
05/06:30pm 28.1 NNW 11 15 1014.1 - 0.0 - - - - - - -
05/06:00pm 28.1 NNW 12 15 1013.8 - 0.0 - - - - - - -
05/05:30pm 28.5 NNW 15 17 1013.3 - 0.0 - - - - - - -
05/05:00pm 29.8 NNW 16 19 1012.9 - 0.0 - - - - - - -
05/04:30pm 32.9 NW 11 13 1012.4 - 0.0 - - - - - - -
05/04:00pm 35.3 NW 9 11 1012.1 - 0.0 - - - - - - -
05/03:30pm 35.8 NW 11 14 1011.9 - 0.0 - - - - - - -
05/03:00pm 36.3 NW 10 13 1012.1 - 0.0 - - - - - - -
05/02:30pm 35.9 WNW 11 15 1012.1 - 0.0 - - - - - - -
05/02:00pm 37.6 SW 7 13 1012.5 - 0.0 - - - - - - -
05/01:30pm 36.5 WSW 5 11 1012.9 - 0.0 - - - - - - -
05/01:00pm 36.3 SW 7 12 1013.4 - 0.0 - - - - - - -
05/12:30pm 36.4 W 10 14 1013.8 - 0.0 - - - - - - -
05/12:00pm 35.5 WSW 7 11 1014.4 - 0.0 - - - - - - -
05/11:30am 35.7 SSW 11 18 1015.0 - 0.0 - - - - - - -
05/11:00am 34.9 SSW 11 16 1015.6 - 0.0 - - - - - - -
05/10:30am 33.6 SSW 8 12 1016.4 - 0.0 - - - - - - -
05/10:00am 32.0 SSW 10 13 1017.0 - 0.0 - - - - - - -
05/09:30am 31.0 SSW 8 11 1017.3 - 0.0 - - - - - - -
05/09:00am 28.8 S 8 11 1017.5 - 0.0 - - - - - - -
05/08:30am 26.9 S 10 13 1017.5 - 0.0 - - - - - - -
05/08:00am 24.9 S 11 15 1017.4 - 0.0 - - - - - - -
05/07:30am 23.6 S 11 14 1017.3 - 0.0 - - - - - - -
05/07:00am 21.7 SSW 7 10 1017.1 - 0.0 - - - - - - -
05/06:30am 18.5 S 6 7 1016.8 - 0.0 - - - - - - -
05/06:00am 17.1 SSW 6 7 1016.3 - 0.0 - - - - - - -
05/05:30am 17.9 S 7 8 1016.0 - 0.0 - - - - - - -
05/05:00am 19.1 SSE 6 7 1015.8 - 0.0 - - - - - - -
05/04:30am 18.5 SSW 6 6 1015.2 - 0.0 - - - - - - -
05/04:00am 19.1 SSW 5 5 1015.0 - 0.0 - - - - - - -
05/03:30am 19.2 SSW 5 6 1014.9 - 0.0 - - - - - - -
05/03:00am 19.8 SSW 5 5 1014.8 - 0.0 - - - - - - -
05/02:30am 20.4 SSE 5 5 1014.9 - 0.0 - - - - - - -
05/02:00am 20.3 SSE 5 5 1014.9 - 0.0 - - - - - - -
05/01:30am 21.8 SSE 5 5 1014.9 - 0.0 - - - - - - -
05/01:00am 21.7 SSE 5 5 1015.1 - 0.0 - - - - - - -
05/12:30am 22.9 SSE 7 9 1015.2 - 0.0 - - - - - - -
05/12:00am 23.1 SSE 8 10 1015.3 - 0.0 - - - - - - -
 
Date/Time
WST
Temp

°C
Wind Pressure Rain
since 9am
mm
Weather Cloud Vis
km
Sea
Height
m
Swell
Dir
 
Speed
knots
Gust
knots
hPa Trend Height
m
Period
s
Dir
04/11:30pm 23.4 SSE 6 8 1015.4 - 0.0 - - - - - - -
04/11:00pm 24.4 SSW 9 11 1015.4 - 0.0 - - - - - - -
04/10:30pm 24.8 SSW 9 11 1015.5 - 0.0 - - - - - - -
04/10:00pm 25.4 SW 9 11 1015.5 - 0.0 - - - - - - -
04/09:30pm 26.5 SW 10 13 1015.5 - 0.0 - - - - - - -
04/09:00pm 27.6 WSW 11 14 1015.5 - 0.0 - - - - - - -
04/08:30pm 27.5 WSW 11 13 1015.5 - 0.0 - - - - - - -
04/08:00pm 27.7 W 9 13 1015.5 - 0.0 - - - - - - -
04/07:30pm 26.5 NW 3 4 1014.9 - 0.0 - - - - - - -
04/07:00pm 26.6 WNW 4 7 1014.8 - 0.0 - - - - - - -
04/06:30pm 27.2 NW 5 6 1014.5 - 0.0 - - - - - - -
04/06:00pm 29.2 NW 10 11 1014.1 - 0.0 - - - - - - -
04/05:30pm 31.4 NW 8 10 1013.8 - 0.0 - - - - - - -
04/05:00pm 34.6 NW 10 11 1013.5 - 0.0 - - - - - - -
04/04:30pm 35.7 NW 11 13 1013.3 - 0.0 - - - - - - -
04/04:00pm 35.3 NW 11 13 1013.3 - 0.0 - - - - - - -
04/03:30pm 36.2 NW 13 16 1013.0 - 0.0 - - - - - - -
04/03:00pm 36.3 NNW 15 18 1012.9 - 0.0 - - - - - - -
04/02:30pm 36.5 NW 14 19 1012.9 - 0.0 - - - - - - -
04/02:17pm 37.3 NW 12 20 1012.8 - 0.0 - - - - - - -
04/02:00pm 37.4 S 3 8 1013.1 - 0.0 - - - - - - -
04/01:30pm 36.0 SSW 7 12 1013.5 - 0.0 - - - - - - -
04/01:00pm 36.9 SW 6 11 1013.9 - 0.0 - - - - - - -
04/12:30pm 35.8 SSE 7 11 1014.4 - 0.0 - - - - - - -
04/12:00pm 35.7 S 6 10 1015.0 - 0.0 - - - - - - -
04/11:30am 34.7 SSW 7 10 1015.4 - 0.0 - - - - - - -
04/11:00am 34.5 S 6 9 1016.1 - 0.0 - - - - - - -
04/10:30am 33.8 SSE 6 10 1016.5 - 0.0 - - - - - - -
04/10:00am 32.1 SE 8 11 1016.9 - 0.0 - - - - - - -
04/09:30am 31.3 SSE 9 13 1017.3 - 0.0 - - - - - - -
04/09:00am 29.6 SSE 10 13 1017.4 - 0.0 - - - - - - -
04/08:30am 27.8 S 9 12 1017.5 - 0.0 - - - - - - -
04/08:00am 24.7 SSE 9 12 1017.5 - 0.0 - - - - - - -
04/07:30am 22.2 S 8 10 1017.3 - 0.0 - - - - - - -
04/07:00am 19.9 S 6 7 1017.2 - 0.0 - - - - - - -
04/06:30am 18.1 S 5 7 1016.9 - 0.0 - - - - - - -
04/06:00am 17.5 S 5 6 1016.8 - 0.0 - - - - - - -
04/05:30am 17.8 S 5 6 1016.6 - 0.0 - - - - - - -
04/05:00am 17.8 SSW 6 7 1016.3 - 0.0 - - - - - - -
04/04:30am 18.1 S 7 8 1016.0 - 0.0 - - - - - - -
04/04:00am 18.8 S 7 8 1015.6 - 0.0 - - - - - - -
04/03:30am 19.3 S 7 8 1015.5 - 0.0 - - - - - - -
04/03:00am 20.3 S 9 11 1015.6 - 0.0 - - - - - - -
04/02:30am 20.2 SSE 8 11 1015.6 - 0.0 - - - - - - -
04/02:00am 20.6 SSE 7 9 1015.5 - 0.0 - - - - - - -
04/01:30am 21.3 S 7 9 1015.6 - 0.0 - - - - - - -
04/01:00am 21.4 S 8 10 1015.8 - 0.0 - - - - - - -
04/12:30am 21.6 S 6 8 1016.1 - 0.0 - - - - - - -
04/12:00am 21.6 S 7 8 1016.3 - 0.0 - - - - - - -
 
Date/Time
WST
Temp

°C
Wind Pressure Rain
since 9am
mm
Weather Cloud Vis
km
Sea
Height
m
Swell
Dir
 
Speed
knots
Gust
knots
hPa Trend Height
m
Period
s
Dir
03/11:30pm 22.3 SSW 6 8 1016.7 - 0.0 - - - - - - -
03/11:00pm 22.7 SW 6 8 1017.0 - 0.0 - - - - - - -
03/10:30pm 23.0 SSW 8 9 1017.1 - 0.0 - - - - - - -
03/10:00pm 23.3 SW 7 8 1017.2 - 0.0 - - - - - - -
03/09:30pm 24.4 S 6 7 1017.2 - 0.0 - - - - - - -
03/09:00pm 24.6 SSW 5 5 1017.0 - 0.0 - - - - - - -
03/08:30pm 24.7 SSW 5 8 1016.9 - 0.0 - - - - - - -
03/08:00pm 24.7 SW 7 10 1016.7 - 0.0 - - - - - - -
03/07:30pm 25.3 N 5 7 1016.0 - 0.0 - - - - - - -
03/07:00pm 25.2 NNW 6 7 1015.6 - 0.0 - - - - - - -
03/06:30pm 25.5 NW 6 7 1015.3 - 0.0 - - - - - - -
03/06:00pm 26.9 NW 5 7 1014.9 - 0.0 - - - - - - -
03/05:30pm 29.3 NW 6 7 1014.6 - 0.0 - - - - - - -
03/05:00pm 31.3 NW 7 8 1014.3 - 0.0 - - - - - - -
03/04:30pm 32.0 NW 9 11 1014.3 - 0.0 - - - - - - -
03/04:00pm 32.3 NNW 9 11 1014.2 - 0.0 - - - - - - -
03/03:30pm 33.2 NW 8 11 1014.1 - 0.0 - - - - - - -
03/03:00pm 33.5 NW 7 12 1013.9 - 0.0 - - - - - - -
03/02:30pm 33.5 WNW 7 10 1014.1 - 0.0 - - - - - - -
03/02:00pm 33.5 NW 7 11 1014.3 - 0.0 - - - - - - -
03/01:30pm 33.4 WNW 7 10 1014.5 - 0.0 - - - - - - -
03/01:00pm 33.0 NW 7 11 1014.9 - 0.0 - - - - - - -
03/12:30pm 32.5 WNW 5 10 1015.3 - 0.0 - - - - - - -
03/12:00pm 31.2 WNW 6 11 1015.6 - 0.0 - - - - - - -
03/11:30am 31.6 NW 6 9 1016.0 - 0.0 - - - - - - -
03/11:00am 30.5 NW 5 8 1016.6 - 0.0 - - - - - - -
03/10:30am 29.6 W 5 7 1017.1 - 0.0 - - - - - - -
03/10:00am 28.8 NW 3 6 1017.5 - 0.0 - - - - - - -
03/09:30am 26.7 SW 5 8 1017.9 - 0.0 - - - - - - -
03/09:00am 25.2 SSE 8 11 1018.0 - 0.0 - - - - - - -
03/08:30am 24.1 SSW 8 11 1017.8 - 0.0 - - - - - - -
03/08:00am 22.4 S 6 8 1017.8 - 0.0 - - - - - - -
03/07:30am 20.5 SSE 5 7 1017.9 - 0.0 - - - - - - -
03/07:00am 19.1 SSE 4 6 1017.7 - 0.0 - - - - - - -
03/06:30am 17.6 SSE 3 5 1017.4 - 0.0 - - - - - - -
03/06:00am 16.3 SE 4 5 1017.2 - 0.0 - - - - - - -
03/05:30am 15.7 S 5 6 1016.6 - 0.0 - - - - - - -
03/05:00am 16.6 SSE 5 6 1016.3 - 0.0 - - - - - - -
03/04:30am 16.9 SSE 6 7 1016.1 - 0.0 - - - - - - -
03/04:00am 17.2 SSE 5 6 1015.7 - 0.0 - - - - - - -
03/03:30am 17.2 SE 4 5 1015.6 - 0.0 - - - - - - -
03/03:00am 17.6 SSE 4 5 1015.7 - 0.0 - - - - - - -
03/02:30am 17.7 S 5 5 1015.9 - 0.0 - - - - - - -
03/02:00am 17.0 CALM 0 0 1015.9 - 0.0 - - - - - - -
03/01:30am 17.8 CALM 0 0 1016.1 - 0.0 - - - - - - -
03/01:00am 18.6 CALM 0 1 1016.0 - 0.0 - - - - - - -
03/12:30am 18.9 SSW 3 4 1016.3 - 0.0 - - - - - - -

Other Formats:

Comma delimited format used in spreadsheet applications
http://www.bom.gov.au/fwo/IDW60701/IDW60701.95205.axf

JavaScript Object Notation format (JSON) in row-major order
http://www.bom.gov.au/fwo/IDW60701/IDW60701.95205.json